sensor_id;sensor_type;location;lat;lon;timestamp;pressure;altitude;pressure_sealevel;temperature;humidity
46722;BME280;32455;43.430;23.136;2023-04-19T00:00:13;97906.19;;;8.45;100.00
46722;BME280;32455;43.430;23.136;2023-04-19T00:02:59;97908.00;;;8.51;100.00
46722;BME280;32455;43.430;23.136;2023-04-19T00:05:44;97917.88;;;8.57;100.00
46722;BME280;32455;43.430;23.136;2023-04-19T00:08:30;97891.50;;;8.54;100.00
46722;BME280;32455;43.430;23.136;2023-04-19T00:11:15;97910.94;;;8.74;100.00
46722;BME280;32455;43.430;23.136;2023-04-19T00:14:00;97908.28;;;8.74;100.00
46722;BME280;32455;43.430;23.136;2023-04-19T00:16:46;97911.06;;;8.61;100.00
46722;BME280;32455;43.430;23.136;2023-04-19T00:19:31;97899.56;;;8.54;100.00
46722;BME280;32455;43.430;23.136;2023-04-19T00:22:18;97896.22;;;8.59;100.00
46722;BME280;32455;43.430;23.136;2023-04-19T00:25:03;97896.06;;;8.53;100.00
46722;BME280;32455;43.430;23.136;2023-04-19T00:27:49;97867.34;;;8.29;100.00
46722;BME280;32455;43.430;23.136;2023-04-19T00:30:34;97892.00;;;8.44;100.00
46722;BME280;32455;43.430;23.136;2023-04-19T00:33:20;97877.19;;;8.35;100.00
46722;BME280;32455;43.430;23.136;2023-04-19T00:36:06;97881.72;;;8.41;100.00
46722;BME280;32455;43.430;23.136;2023-04-19T00:38:51;97884.78;;;8.45;100.00
46722;BME280;32455;43.430;23.136;2023-04-19T00:41:36;97880.47;;;8.44;100.00
46722;BME280;32455;43.430;23.136;2023-04-19T00:44:21;97876.75;;;8.45;100.00
46722;BME280;32455;43.430;23.136;2023-04-19T00:47:05;97870.38;;;8.39;100.00
46722;BME280;32455;43.430;23.136;2023-04-19T00:49:51;97882.31;;;8.43;100.00
46722;BME280;32455;43.430;23.136;2023-04-19T00:52:36;97888.66;;;8.49;100.00
46722;BME280;32455;43.430;23.136;2023-04-19T00:55:22;97878.22;;;8.41;100.00
46722;BME280;32455;43.430;23.136;2023-04-19T00:58:08;97868.31;;;8.35;100.00
46722;BME280;32455;43.430;23.136;2023-04-19T01:00:54;97868.16;;;8.29;100.00
46722;BME280;32455;43.430;23.136;2023-04-19T01:03:39;97868.53;;;8.33;100.00
46722;BME280;32455;43.430;23.136;2023-04-19T01:06:25;97858.50;;;8.28;100.00
46722;BME280;32455;43.430;23.136;2023-04-19T01:09:11;97869.59;;;8.32;100.00
46722;BME280;32455;43.430;23.136;2023-04-19T01:11:56;97867.09;;;8.31;100.00
46722;BME280;32455;43.430;23.136;2023-04-19T01:14:41;97861.16;;;8.28;100.00
46722;BME280;32455;43.430;23.136;2023-04-19T01:17:31;97866.50;;;8.35;100.00
46722;BME280;32455;43.430;23.136;2023-04-19T01:20:16;97853.31;;;8.34;100.00
46722;BME280;32455;43.430;23.136;2023-04-19T01:23:02;97853.13;;;8.28;100.00
46722;BME280;32455;43.430;23.136;2023-04-19T01:25:47;97844.50;;;8.26;100.00
46722;BME280;32455;43.430;23.136;2023-04-19T01:28:32;97850.63;;;8.34;100.00
46722;BME280;32455;43.430;23.136;2023-04-19T01:31:17;97844.22;;;8.35;100.00
46722;BME280;32455;43.430;23.136;2023-04-19T01:34:03;97845.03;;;8.42;100.00
46722;BME280;32455;43.430;23.136;2023-04-19T01:36:49;97864.66;;;8.61;100.00
46722;BME280;32455;43.430;23.136;2023-04-19T01:39:34;97836.34;;;8.15;100.00
46722;BME280;32455;43.430;23.136;2023-04-19T01:42:20;97830.13;;;8.21;100.00
46722;BME280;32455;43.430;23.136;2023-04-19T01:45:06;97841.63;;;8.21;100.00
46722;BME280;32455;43.430;23.136;2023-04-19T01:47:52;97845.84;;;8.11;100.00
46722;BME280;32455;43.430;23.136;2023-04-19T01:50:37;97839.84;;;8.15;100.00
46722;BME280;32455;43.430;23.136;2023-04-19T01:53:23;97832.63;;;8.16;100.00
46722;BME280;32455;43.430;23.136;2023-04-19T01:56:08;97825.47;;;8.10;100.00
46722;BME280;32455;43.430;23.136;2023-04-19T01:58:53;97817.63;;;8.08;100.00
46722;BME280;32455;43.430;23.136;2023-04-19T02:01:39;97829.56;;;8.12;100.00
46722;BME280;32455;43.430;23.136;2023-04-19T02:04:24;97831.41;;;8.12;100.00
46722;BME280;32455;43.430;23.136;2023-04-19T02:07:09;97835.47;;;7.89;100.00
46722;BME280;32455;43.430;23.136;2023-04-19T02:09:55;97822.72;;;7.85;100.00
46722;BME280;32455;43.430;23.136;2023-04-19T02:12:43;97808.38;;;7.72;100.00
46722;BME280;32455;43.430;23.136;2023-04-19T02:15:28;97810.56;;;7.89;100.00
46722;BME280;32455;43.430;23.136;2023-04-19T02:18:14;97819.97;;;7.98;100.00
46722;BME280;32455;43.430;23.136;2023-04-19T02:21:01;97821.09;;;8.15;100.00
46722;BME280;32455;43.430;23.136;2023-04-19T02:23:46;97813.34;;;8.07;100.00
46722;BME280;32455;43.430;23.136;2023-04-19T02:26:31;97814.97;;;8.08;100.00
46722;BME280;32455;43.430;23.136;2023-04-19T02:29:17;97820.06;;;8.16;100.00
46722;BME280;32455;43.430;23.136;2023-04-19T02:32:02;97788.47;;;8.00;100.00
46722;BME280;32455;43.430;23.136;2023-04-19T02:34:50;97806.28;;;8.13;100.00
46722;BME280;32455;43.430;23.136;2023-04-19T02:37:35;97801.31;;;8.16;100.00
46722;BME280;32455;43.430;23.136;2023-04-19T02:40:21;97799.69;;;8.15;100.00
46722;BME280;32455;43.430;23.136;2023-04-19T02:43:07;97788.69;;;7.98;100.00
46722;BME280;32455;43.430;23.136;2023-04-19T02:45:53;97811.06;;;8.11;100.00
46722;BME280;32455;43.430;23.136;2023-04-19T02:48:38;97787.78;;;7.80;100.00
46722;BME280;32455;43.430;23.136;2023-04-19T02:51:23;97803.94;;;7.98;100.00
46722;BME280;32455;43.430;23.136;2023-04-19T02:54:09;97788.78;;;7.85;100.00
46722;BME280;32455;43.430;23.136;2023-04-19T02:56:55;97796.16;;;7.83;100.00
46722;BME280;32455;43.430;23.136;2023-04-19T02:59:41;97789.81;;;7.84;100.00
46722;BME280;32455;43.430;23.136;2023-04-19T03:02:26;97790.31;;;7.99;100.00
46722;BME280;32455;43.430;23.136;2023-04-19T03:05:12;97783.38;;;7.92;100.00
46722;BME280;32455;43.430;23.136;2023-04-19T03:07:57;97803.66;;;8.06;100.00
46722;BME280;32455;43.430;23.136;2023-04-19T03:10:43;97786.56;;;8.07;100.00
46722;BME280;32455;43.430;23.136;2023-04-19T03:13:28;97775.16;;;7.93;100.00
46722;BME280;32455;43.430;23.136;2023-04-19T03:16:17;97797.31;;;8.00;100.00
46722;BME280;32455;43.430;23.136;2023-04-19T03:19:02;97799.38;;;7.98;100.00
46722;BME280;32455;43.430;23.136;2023-04-19T03:21:48;97793.16;;;8.04;100.00
46722;BME280;32455;43.430;23.136;2023-04-19T03:24:33;97796.22;;;8.08;100.00
46722;BME280;32455;43.430;23.136;2023-04-19T03:27:19;97780.44;;;8.00;100.00
46722;BME280;32455;43.430;23.136;2023-04-19T03:30:05;97788.81;;;8.10;100.00
46722;BME280;32455;43.430;23.136;2023-04-19T03:32:51;97779.44;;;7.94;100.00
46722;BME280;32455;43.430;23.136;2023-04-19T03:35:36;97797.88;;;8.09;100.00
46722;BME280;32455;43.430;23.136;2023-04-19T03:38:22;97788.84;;;8.03;100.00
46722;BME280;32455;43.430;23.136;2023-04-19T03:41:21;97793.38;;;8.10;100.00
46722;BME280;32455;43.430;23.136;2023-04-19T03:44:08;97799.47;;;8.17;100.00
46722;BME280;32455;43.430;23.136;2023-04-19T03:46:53;97799.22;;;8.25;100.00
46722;BME280;32455;43.430;23.136;2023-04-19T03:49:38;97786.06;;;8.23;100.00
46722;BME280;32455;43.430;23.136;2023-04-19T03:52:24;97788.31;;;8.26;100.00
46722;BME280;32455;43.430;23.136;2023-04-19T03:55:09;97783.81;;;8.20;100.00
46722;BME280;32455;43.430;23.136;2023-04-19T03:57:56;97794.41;;;8.34;100.00
46722;BME280;32455;43.430;23.136;2023-04-19T04:00:42;97802.03;;;8.37;100.00
46722;BME280;32455;43.430;23.136;2023-04-19T04:03:27;97807.19;;;8.38;100.00
46722;BME280;32455;43.430;23.136;2023-04-19T04:06:12;97801.22;;;8.29;100.00
46722;BME280;32455;43.430;23.136;2023-04-19T04:08:58;97803.69;;;8.38;100.00
46722;BME280;32455;43.430;23.136;2023-04-19T04:11:43;97796.69;;;8.37;100.00
46722;BME280;32455;43.430;23.136;2023-04-19T04:14:28;97809.03;;;8.38;100.00
46722;BME280;32455;43.430;23.136;2023-04-19T04:17:14;97796.69;;;8.37;100.00
46722;BME280;32455;43.430;23.136;2023-04-19T04:19:59;97795.84;;;8.36;100.00
46722;BME280;32455;43.430;23.136;2023-04-19T04:22:44;97819.72;;;8.44;100.00
46722;BME280;32455;43.430;23.136;2023-04-19T04:25:30;97819.50;;;8.39;100.00
46722;BME280;32455;43.430;23.136;2023-04-19T04:28:16;97819.25;;;8.47;100.00
46722;BME280;32455;43.430;23.136;2023-04-19T04:31:02;97817.84;;;8.45;100.00
46722;BME280;32455;43.430;23.136;2023-04-19T04:33:47;97820.03;;;8.55;100.00
46722;BME280;32455;43.430;23.136;2023-04-19T04:36:33;97812.81;;;8.55;100.00
46722;BME280;32455;43.430;23.136;2023-04-19T04:39:19;97821.00;;;8.60;100.00
46722;BME280;32455;43.430;23.136;2023-04-19T04:42:05;97813.06;;;8.47;100.00
46722;BME280;32455;43.430;23.136;2023-04-19T04:44:53;97815.50;;;8.55;100.00
46722;BME280;32455;43.430;23.136;2023-04-19T04:47:42;97812.78;;;8.62;100.00
46722;BME280;32455;43.430;23.136;2023-04-19T04:50:27;97799.56;;;8.60;100.00
46722;BME280;32455;43.430;23.136;2023-04-19T04:53:12;97807.56;;;8.67;100.00
46722;BME280;32455;43.430;23.136;2023-04-19T04:55:57;97808.13;;;8.75;100.00
46722;BME280;32455;43.430;23.136;2023-04-19T04:58:42;97810.09;;;8.87;100.00
46722;BME280;32455;43.430;23.136;2023-04-19T05:01:29;97802.88;;;8.87;100.00
46722;BME280;32455;43.430;23.136;2023-04-19T05:04:14;97794.31;;;8.97;100.00
46722;BME280;32455;43.430;23.136;2023-04-19T05:06:59;97797.13;;;9.02;100.00
46722;BME280;32455;43.430;23.136;2023-04-19T05:09:44;97802.25;;;9.03;100.00
46722;BME280;32455;43.430;23.136;2023-04-19T05:12:30;97794.22;;;9.03;100.00
46722;BME280;32455;43.430;23.136;2023-04-19T05:15:15;97799.91;;;9.14;100.00
46722;BME280;32455;43.430;23.136;2023-04-19T05:18:01;97807.44;;;9.23;100.00
46722;BME280;32455;43.430;23.136;2023-04-19T05:20:46;97801.88;;;9.25;100.00
46722;BME280;32455;43.430;23.136;2023-04-19T05:23:32;97794.97;;;9.29;100.00
46722;BME280;32455;43.430;23.136;2023-04-19T05:26:18;97802.38;;;9.34;100.00
46722;BME280;32455;43.430;23.136;2023-04-19T05:29:03;97807.75;;;9.34;100.00
46722;BME280;32455;43.430;23.136;2023-04-19T05:31:49;97805.94;;;9.46;100.00
46722;BME280;32455;43.430;23.136;2023-04-19T05:34:35;97812.19;;;9.58;100.00
46722;BME280;32455;43.430;23.136;2023-04-19T05:37:20;97814.88;;;9.58;100.00
46722;BME280;32455;43.430;23.136;2023-04-19T05:40:08;97804.13;;;9.58;100.00
46722;BME280;32455;43.430;23.136;2023-04-19T05:42:57;97805.31;;;9.62;100.00
46722;BME280;32455;43.430;23.136;2023-04-19T05:45:43;97803.69;;;9.61;100.00
46722;BME280;32455;43.430;23.136;2023-04-19T05:48:28;97803.41;;;9.51;100.00
46722;BME280;32455;43.430;23.136;2023-04-19T05:51:13;97803.34;;;9.39;100.00
46722;BME280;32455;43.430;23.136;2023-04-19T05:53:59;97804.53;;;9.43;100.00
46722;BME280;32455;43.430;23.136;2023-04-19T05:56:45;97809.06;;;9.61;100.00
46722;BME280;32455;43.430;23.136;2023-04-19T05:59:31;97818.00;;;9.73;100.00
46722;BME280;32455;43.430;23.136;2023-04-19T06:02:16;97813.34;;;9.81;100.00
46722;BME280;32455;43.430;23.136;2023-04-19T06:05:01;97808.63;;;9.46;100.00
46722;BME280;32455;43.430;23.136;2023-04-19T06:07:47;97815.25;;;9.43;100.00
46722;BME280;32455;43.430;23.136;2023-04-19T06:10:32;97813.97;;;9.46;100.00
46722;BME280;32455;43.430;23.136;2023-04-19T06:13:17;97817.56;;;9.58;100.00
46722;BME280;32455;43.430;23.136;2023-04-19T06:16:02;97810.69;;;9.62;100.00
46722;BME280;32455;43.430;23.136;2023-04-19T06:18:47;97821.97;;;9.52;100.00
46722;BME280;32455;43.430;23.136;2023-04-19T06:21:33;97819.19;;;9.59;100.00
46722;BME280;32455;43.430;23.136;2023-04-19T06:24:18;97818.88;;;9.67;100.00
46722;BME280;32455;43.430;23.136;2023-04-19T06:27:03;97767.97;;;9.31;100.00
46722;BME280;32455;43.430;23.136;2023-04-19T06:29:49;97812.56;;;9.62;100.00
46722;BME280;32455;43.430;23.136;2023-04-19T06:32:34;97803.28;;;9.76;100.00
46722;BME280;32455;43.430;23.136;2023-04-19T06:35:20;97816.44;;;9.66;100.00
46722;BME280;32455;43.430;23.136;2023-04-19T06:38:05;97817.69;;;9.63;100.00
46722;BME280;32455;43.430;23.136;2023-04-19T06:40:51;97821.25;;;9.94;100.00
46722;BME280;32455;43.430;23.136;2023-04-19T06:43:37;97829.25;;;10.12;100.00
46722;BME280;32455;43.430;23.136;2023-04-19T06:46:24;97809.97;;;10.03;100.00
46722;BME280;32455;43.430;23.136;2023-04-19T06:49:11;97796.91;;;10.07;100.00
46722;BME280;32455;43.430;23.136;2023-04-19T06:51:58;97805.53;;;10.39;100.00
46722;BME280;32455;43.430;23.136;2023-04-19T06:54:50;97798.91;;;10.53;100.00
46722;BME280;32455;43.430;23.136;2023-04-19T06:57:36;97810.25;;;10.67;100.00
46722;BME280;32455;43.430;23.136;2023-04-19T07:00:22;97818.09;;;11.04;100.00
46722;BME280;32455;43.430;23.136;2023-04-19T07:03:07;97808.41;;;10.80;100.00
46722;BME280;32455;43.430;23.136;2023-04-19T07:05:53;97805.84;;;10.85;100.00
46722;BME280;32455;43.430;23.136;2023-04-19T07:08:40;97813.63;;;11.21;100.00
46722;BME280;32455;43.430;23.136;2023-04-19T07:11:25;97818.38;;;11.66;100.00
46722;BME280;32455;43.430;23.136;2023-04-19T07:14:10;97810.53;;;12.05;100.00
46722;BME280;32455;43.430;23.136;2023-04-19T07:16:55;97822.25;;;12.27;100.00
46722;BME280;32455;43.430;23.136;2023-04-19T07:19:40;97823.28;;;12.10;100.00
46722;BME280;32455;43.430;23.136;2023-04-19T07:22:26;97825.97;;;12.38;100.00
46722;BME280;32455;43.430;23.136;2023-04-19T07:25:11;97811.44;;;12.56;100.00
46722;BME280;32455;43.430;23.136;2023-04-19T07:27:57;97829.81;;;12.76;100.00
46722;BME280;32455;43.430;23.136;2023-04-19T07:30:42;97826.47;;;12.86;100.00
46722;BME280;32455;43.430;23.136;2023-04-19T07:33:30;97815.69;;;12.52;100.00
46722;BME280;32455;43.430;23.136;2023-04-19T07:36:16;97834.38;;;12.59;100.00
46722;BME280;32455;43.430;23.136;2023-04-19T07:39:01;97820.47;;;12.33;100.00
46722;BME280;32455;43.430;23.136;2023-04-19T07:41:47;97836.41;;;12.35;100.00
46722;BME280;32455;43.430;23.136;2023-04-19T07:44:32;97810.22;;;12.47;100.00
46722;BME280;32455;43.430;23.136;2023-04-19T07:47:17;97832.19;;;12.56;100.00
46722;BME280;32455;43.430;23.136;2023-04-19T07:50:02;97816.66;;;12.79;100.00
46722;BME280;32455;43.430;23.136;2023-04-19T07:52:49;97831.38;;;12.72;100.00
46722;BME280;32455;43.430;23.136;2023-04-19T07:55:34;97827.25;;;12.36;100.00
46722;BME280;32455;43.430;23.136;2023-04-19T07:58:18;97823.56;;;12.25;100.00
46722;BME280;32455;43.430;23.136;2023-04-19T08:01:04;97821.31;;;12.50;100.00
46722;BME280;32455;43.430;23.136;2023-04-19T08:03:49;97827.25;;;12.36;100.00
46722;BME280;32455;43.430;23.136;2023-04-19T08:06:36;97814.25;;;12.33;100.00
46722;BME280;32455;43.430;23.136;2023-04-19T08:09:22;97801.13;;;12.36;100.00
46722;BME280;32455;43.430;23.136;2023-04-19T08:12:07;97818.63;;;12.67;100.00
46722;BME280;32455;43.430;23.136;2023-04-19T08:14:53;97817.25;;;12.82;100.00
46722;BME280;32455;43.430;23.136;2023-04-19T08:17:39;97801.47;;;12.57;100.00
46722;BME280;32455;43.430;23.136;2023-04-19T08:20:26;97797.47;;;12.42;100.00
46722;BME280;32455;43.430;23.136;2023-04-19T08:23:11;97790.84;;;12.67;100.00
46722;BME280;32455;43.430;23.136;2023-04-19T08:25:57;97788.66;;;12.47;100.00
46722;BME280;32455;43.430;23.136;2023-04-19T08:28:42;97806.53;;;12.53;100.00
46722;BME280;32455;43.430;23.136;2023-04-19T08:31:28;97809.16;;;12.82;100.00
46722;BME280;32455;43.430;23.136;2023-04-19T08:34:13;97801.94;;;13.04;100.00
46722;BME280;32455;43.430;23.136;2023-04-19T08:36:58;97795.53;;;13.10;100.00
46722;BME280;32455;43.430;23.136;2023-04-19T08:39:44;97800.75;;;12.61;100.00
46722;BME280;32455;43.430;23.136;2023-04-19T08:42:30;97779.63;;;12.08;100.00
46722;BME280;32455;43.430;23.136;2023-04-19T08:45:16;97784.72;;;12.71;100.00
46722;BME280;32455;43.430;23.136;2023-04-19T08:48:03;97789.53;;;13.03;100.00
46722;BME280;32455;43.430;23.136;2023-04-19T08:50:50;97772.81;;;13.23;100.00
46722;BME280;32455;43.430;23.136;2023-04-19T08:53:36;97786.53;;;13.60;100.00
46722;BME280;32455;43.430;23.136;2023-04-19T08:56:22;97799.78;;;13.62;100.00
46722;BME280;32455;43.430;23.136;2023-04-19T08:59:07;97780.59;;;13.58;100.00
46722;BME280;32455;43.430;23.136;2023-04-19T09:01:53;97791.38;;;13.19;100.00
46722;BME280;32455;43.430;23.136;2023-04-19T09:04:40;97770.50;;;13.32;100.00
46722;BME280;32455;43.430;23.136;2023-04-19T09:07:26;97780.50;;;13.53;100.00
46722;BME280;32455;43.430;23.136;2023-04-19T09:10:17;97782.84;;;13.66;100.00
46722;BME280;32455;43.430;23.136;2023-04-19T09:13:04;97781.50;;;13.47;100.00
46722;BME280;32455;43.430;23.136;2023-04-19T09:15:50;97767.34;;;13.18;100.00
46722;BME280;32455;43.430;23.136;2023-04-19T09:18:56;97779.56;;;13.42;100.00
46722;BME280;32455;43.430;23.136;2023-04-19T09:21:43;97775.25;;;13.41;100.00
46722;BME280;32455;43.430;23.136;2023-04-19T09:24:38;97778.81;;;13.08;99.67
46722;BME280;32455;43.430;23.136;2023-04-19T09:27:34;97783.84;;;13.60;100.00
46722;BME280;32455;43.430;23.136;2023-04-19T09:30:24;97769.91;;;13.68;100.00
46722;BME280;32455;43.430;23.136;2023-04-19T09:33:09;97777.28;;;13.78;100.00
46722;BME280;32455;43.430;23.136;2023-04-19T09:35:54;97776.59;;;13.44;100.00
46722;BME280;32455;43.430;23.136;2023-04-19T09:38:49;97786.78;;;13.59;100.00
46722;BME280;32455;43.430;23.136;2023-04-19T09:41:35;97781.59;;;12.96;100.00
46722;BME280;32455;43.430;23.136;2023-04-19T09:44:35;97779.50;;;13.37;100.00
46722;BME280;32455;43.430;23.136;2023-04-19T09:47:26;97776.97;;;13.31;100.00
46722;BME280;32455;43.430;23.136;2023-04-19T09:50:13;97772.41;;;13.31;100.00
46722;BME280;32455;43.430;23.136;2023-04-19T09:52:59;97784.22;;;13.69;100.00
46722;BME280;32455;43.430;23.136;2023-04-19T09:55:45;97790.19;;;13.49;100.00
46722;BME280;32455;43.430;23.136;2023-04-19T09:58:34;97784.59;;;13.56;100.00
46722;BME280;32455;43.430;23.136;2023-04-19T10:01:20;97751.56;;;13.26;100.00
46722;BME280;32455;43.430;23.136;2023-04-19T10:04:06;97777.13;;;13.41;100.00
46722;BME280;32455;43.430;23.136;2023-04-19T10:06:53;97760.03;;;13.35;100.00
46722;BME280;32455;43.430;23.136;2023-04-19T10:09:38;97750.53;;;13.27;100.00
46722;BME280;32455;43.430;23.136;2023-04-19T10:12:25;97764.31;;;13.75;100.00
46722;BME280;32455;43.430;23.136;2023-04-19T10:15:12;97780.06;;;14.10;100.00
46722;BME280;32455;43.430;23.136;2023-04-19T10:17:58;97765.41;;;14.33;100.00
46722;BME280;32455;43.430;23.136;2023-04-19T10:21:13;97757.34;;;13.79;100.00
46722;BME280;32455;43.430;23.136;2023-04-19T10:23:59;97765.00;;;13.43;100.00
46722;BME280;32455;43.430;23.136;2023-04-19T10:27:11;97767.75;;;13.48;100.00
46722;BME280;32455;43.430;23.136;2023-04-19T10:30:03;97762.41;;;13.32;100.00
46722;BME280;32455;43.430;23.136;2023-04-19T10:32:56;97751.84;;;13.08;100.00
46722;BME280;32455;43.430;23.136;2023-04-19T10:35:43;97756.72;;;13.50;100.00
46722;BME280;32455;43.430;23.136;2023-04-19T10:38:41;97760.03;;;13.79;100.00
46722;BME280;32455;43.430;23.136;2023-04-19T10:41:57;97765.06;;;13.70;100.00
46722;BME280;32455;43.430;23.136;2023-04-19T10:51:17;97752.16;;;13.50;100.00
46722;BME280;32455;43.430;23.136;2023-04-19T10:54:08;97751.19;;;13.84;100.00
46722;BME280;32455;43.430;23.136;2023-04-19T11:00:18;97750.72;;;13.70;99.65
46722;BME280;32455;43.430;23.136;2023-04-19T11:06:28;97743.59;;;14.13;96.52
46722;BME280;32455;43.430;23.136;2023-04-19T11:09:43;97761.16;;;14.42;98.98
46722;BME280;32455;43.430;23.136;2023-04-19T11:12:29;97759.72;;;14.29;100.00
46722;BME280;32455;43.430;23.136;2023-04-19T11:15:13;97742.75;;;14.07;97.11
46722;BME280;32455;43.430;23.136;2023-04-19T11:17:58;97751.13;;;14.06;100.00
46722;BME280;32455;43.430;23.136;2023-04-19T11:20:43;97741.44;;;14.42;100.00
46722;BME280;32455;43.430;23.136;2023-04-19T11:23:28;97753.72;;;14.49;96.53
46722;BME280;32455;43.430;23.136;2023-04-19T11:26:13;97740.28;;;14.33;92.65
46722;BME280;32455;43.430;23.136;2023-04-19T11:28:59;97747.91;;;14.09;90.84
46722;BME280;32455;43.430;23.136;2023-04-19T11:31:45;97741.03;;;14.55;91.33
46722;BME280;32455;43.430;23.136;2023-04-19T11:34:39;97721.19;;;14.44;93.89
46722;BME280;32455;43.430;23.136;2023-04-19T11:37:31;97738.56;;;14.48;90.78
46722;BME280;32455;43.430;23.136;2023-04-19T11:40:17;97734.59;;;14.61;94.31
46722;BME280;32455;43.430;23.136;2023-04-19T11:43:03;97724.91;;;15.08;93.99
46722;BME280;32455;43.430;23.136;2023-04-19T11:45:49;97733.22;;;15.59;84.30
46722;BME280;32455;43.430;23.136;2023-04-19T11:48:34;97721.75;;;15.31;83.10
46722;BME280;32455;43.430;23.136;2023-04-19T11:51:20;97725.22;;;15.21;76.73
46722;BME280;32455;43.430;23.136;2023-04-19T11:54:11;97709.19;;;14.62;80.05
46722;BME280;32455;43.430;23.136;2023-04-19T11:57:04;97717.44;;;14.83;78.17
46722;BME280;32455;43.430;23.136;2023-04-19T12:00:04;97721.88;;;14.57;77.52
46722;BME280;32455;43.430;23.136;2023-04-19T12:02:59;97723.16;;;14.49;80.20
46722;BME280;32455;43.430;23.136;2023-04-19T12:05:57;97733.69;;;15.35;77.77
46722;BME280;32455;43.430;23.136;2023-04-19T12:08:46;97727.00;;;15.58;79.11
46722;BME280;32455;43.430;23.136;2023-04-19T12:11:44;97702.47;;;15.90;73.67
46722;BME280;32455;43.430;23.136;2023-04-19T12:14:30;97707.84;;;15.75;72.70
46722;BME280;32455;43.430;23.136;2023-04-19T12:17:16;97706.56;;;16.18;77.80
46722;BME280;32455;43.430;23.136;2023-04-19T12:20:01;97701.09;;;15.88;72.08
46722;BME280;32455;43.430;23.136;2023-04-19T12:22:48;97700.03;;;16.09;72.39
46722;BME280;32455;43.430;23.136;2023-04-19T12:25:33;97698.41;;;16.90;72.77
46722;BME280;32455;43.430;23.136;2023-04-19T12:28:19;97697.84;;;15.86;70.91
46722;BME280;32455;43.430;23.136;2023-04-19T12:31:04;97696.81;;;16.33;70.61
46722;BME280;32455;43.430;23.136;2023-04-19T12:33:49;97702.69;;;15.68;71.70
46722;BME280;32455;43.430;23.136;2023-04-19T12:36:34;97682.84;;;15.47;72.78
46722;BME280;32455;43.430;23.136;2023-04-19T12:39:20;97687.56;;;15.93;74.74
46722;BME280;32455;43.430;23.136;2023-04-19T12:42:05;97683.47;;;15.80;69.30
46722;BME280;32455;43.430;23.136;2023-04-19T12:44:50;97679.53;;;15.35;70.37
46722;BME280;32455;43.430;23.136;2023-04-19T12:47:36;97679.06;;;15.53;72.18
46722;BME280;32455;43.430;23.136;2023-04-19T12:50:21;97690.19;;;15.62;73.56
46722;BME280;32455;43.430;23.136;2023-04-19T12:53:06;97687.84;;;15.96;70.87
46722;BME280;32455;43.430;23.136;2023-04-19T12:55:53;97669.53;;;15.46;71.65
46722;BME280;32455;43.430;23.136;2023-04-19T12:58:38;97682.66;;;15.64;73.67
46722;BME280;32455;43.430;23.136;2023-04-19T13:01:24;97676.16;;;15.02;69.92
46722;BME280;32455;43.430;23.136;2023-04-19T13:04:08;97673.78;;;15.16;71.52
46722;BME280;32455;43.430;23.136;2023-04-19T13:06:55;97658.47;;;15.42;74.36
46722;BME280;32455;43.430;23.136;2023-04-19T13:09:40;97663.38;;;15.56;76.66
46722;BME280;32455;43.430;23.136;2023-04-19T13:12:26;97649.69;;;15.20;70.74
46722;BME280;32455;43.430;23.136;2023-04-19T13:15:12;97657.66;;;15.52;74.18
46722;BME280;32455;43.430;23.136;2023-04-19T13:17:57;97663.00;;;15.26;72.10
46722;BME280;32455;43.430;23.136;2023-04-19T13:20:42;97668.94;;;15.23;70.83
46722;BME280;32455;43.430;23.136;2023-04-19T13:23:28;97666.56;;;15.42;72.24
46722;BME280;32455;43.430;23.136;2023-04-19T13:26:14;97638.63;;;15.26;73.50
46722;BME280;32455;43.430;23.136;2023-04-19T13:28:59;97663.97;;;15.00;69.25
46722;BME280;32455;43.430;23.136;2023-04-19T13:31:45;97649.75;;;14.72;70.41
46722;BME280;32455;43.430;23.136;2023-04-19T13:34:30;97663.47;;;15.08;71.51
46722;BME280;32455;43.430;23.136;2023-04-19T13:37:15;97648.56;;;15.00;70.07
46722;BME280;32455;43.430;23.136;2023-04-19T13:40:01;97665.34;;;15.91;70.15
46722;BME280;32455;43.430;23.136;2023-04-19T13:42:47;97626.31;;;15.92;68.28
46722;BME280;32455;43.430;23.136;2023-04-19T13:45:33;97645.00;;;15.83;69.53
46722;BME280;32455;43.430;23.136;2023-04-19T13:48:18;97641.38;;;15.37;67.57
46722;BME280;32455;43.430;23.136;2023-04-19T13:51:05;97636.59;;;15.64;67.89
46722;BME280;32455;43.430;23.136;2023-04-19T13:53:50;97657.59;;;15.32;65.36
46722;BME280;32455;43.430;23.136;2023-04-19T13:56:36;97642.84;;;15.75;64.71
46722;BME280;32455;43.430;23.136;2023-04-19T13:59:21;97650.94;;;15.65;63.44
46722;BME280;32455;43.430;23.136;2023-04-19T14:02:09;97635.66;;;15.28;64.40
46722;BME280;32455;43.430;23.136;2023-04-19T14:04:55;97640.63;;;15.57;66.61
46722;BME280;32455;43.430;23.136;2023-04-19T14:07:42;97647.19;;;15.96;68.59
46722;BME280;32455;43.430;23.136;2023-04-19T14:10:27;97632.56;;;15.87;65.20
46722;BME280;32455;43.430;23.136;2023-04-19T14:13:13;97629.78;;;16.79;64.80
46722;BME280;32455;43.430;23.136;2023-04-19T14:15:58;97626.91;;;17.20;61.48
46722;BME280;32455;43.430;23.136;2023-04-19T14:18:43;97622.78;;;17.33;59.80
46722;BME280;32455;43.430;23.136;2023-04-19T14:21:29;97634.34;;;16.94;54.28
46722;BME280;32455;43.430;23.136;2023-04-19T14:24:14;97629.22;;;16.72;57.32
46722;BME280;32455;43.430;23.136;2023-04-19T14:27:00;97637.13;;;16.73;59.44
46722;BME280;32455;43.430;23.136;2023-04-19T14:29:45;97633.38;;;16.13;61.74
46722;BME280;32455;43.430;23.136;2023-04-19T14:32:30;97650.72;;;16.53;60.72
46722;BME280;32455;43.430;23.136;2023-04-19T14:35:17;97643.28;;;16.99;64.49
46722;BME280;32455;43.430;23.136;2023-04-19T14:38:03;97638.09;;;17.03;64.16
46722;BME280;32455;43.430;23.136;2023-04-19T14:40:49;97629.19;;;16.92;65.57